createdAt,value
2022-11-27T05:00:42.876Z,100873.50
2022-11-27T05:04:45.498Z,100863.25
2022-11-27T05:08:48.123Z,100869.75
2022-11-27T05:12:50.925Z,100851.44
2022-11-27T05:16:57.403Z,100853.25
2022-11-27T05:21:01.496Z,100846.78
2022-11-27T05:25:04.320Z,100847.19
2022-11-27T05:29:07.434Z,100844.25
2022-11-27T05:33:11.539Z,100846.19
2022-11-27T05:37:19.216Z,100847.56
2022-11-27T05:41:22.388Z,100832.03
2022-11-27T05:45:25.006Z,100834.34
2022-11-27T05:49:29.007Z,100824.38
2022-11-27T05:53:31.879Z,100826.22
2022-11-27T05:57:34.495Z,100812.84
2022-11-27T06:01:37.144Z,100805.94
2022-11-27T06:05:41.208Z,100807.03
2022-11-27T06:09:43.912Z,100808.16
2022-11-27T06:13:47.609Z,100801.13
2022-11-27T06:17:50.253Z,100803.50
2022-11-27T06:21:54.363Z,100803.81
2022-11-27T06:25:56.952Z,100799.13
2022-11-27T06:29:59.570Z,100791.25
2022-11-27T06:34:03.081Z,100793.75
2022-11-27T06:38:06.878Z,100785.28
2022-11-27T06:42:09.518Z,100789.38
2022-11-27T06:46:13.968Z,100789.22
2022-11-27T06:50:16.713Z,100785.25
2022-11-27T06:54:20.675Z,100783.38
2022-11-27T06:58:27.897Z,100782.97
2022-11-27T07:02:33.650Z,100787.84
2022-11-27T07:06:36.293Z,100790.97
2022-11-27T07:10:40.434Z,100774.72
2022-11-27T07:14:43.130Z,100767.66
2022-11-27T07:18:47.650Z,100774.06
2022-11-27T07:22:50.318Z,100756.13
2022-11-27T07:26:54.246Z,100754.53
2022-11-27T07:30:58.631Z,100754.75
2022-11-27T07:35:01.277Z,100751.69
2022-11-27T07:39:03.977Z,100748.94
2022-11-27T07:43:08.150Z,100740.97
2022-11-27T07:47:10.739Z,100738.22
2022-11-27T07:51:16.240Z,100733.44
2022-11-27T07:55:18.983Z,100733.09
2022-11-27T07:59:23.203Z,100736.59
2022-11-27T08:03:26.037Z,100723.91
2022-11-27T08:07:29.502Z,100717.31
2022-11-27T08:11:35.148Z,100723.59
2022-11-27T08:15:39.104Z,100721.66
2022-11-27T08:19:41.751Z,100709.03
2022-11-27T08:23:44.377Z,100706.66
2022-11-27T08:27:48.245Z,100706.34
2022-11-27T08:31:52.401Z,100706.66
2022-11-27T08:35:55.339Z,100708.53
2022-11-27T08:39:58.160Z,100712.47
2022-11-27T08:44:02.030Z,100706.84
2022-11-27T08:48:08.038Z,100707.63
2022-11-27T08:52:11.052Z,100708.91
2022-11-27T08:56:17.597Z,100704.81
2022-11-27T09:00:26.404Z,100701.97
2022-11-27T09:04:31.934Z,100707.69
2022-11-27T09:08:34.681Z,100709.28
2022-11-27T09:12:43.101Z,100704.44
2022-11-27T09:16:46.146Z,100703.47
2022-11-27T09:20:57.739Z,100695.69
2022-11-27T09:25:00.355Z,100687.81
2022-11-27T09:29:03.960Z,100686.25
2022-11-27T09:33:06.528Z,100665.41
2022-11-27T09:37:11.077Z,100655.81
2022-11-27T09:41:39.418Z,100649.25
2022-11-27T09:45:48.246Z,100643.25
2022-11-27T09:49:55.731Z,100634.25
2022-11-27T09:54:07.460Z,100631.53
2022-11-27T09:58:17.073Z,100624.78
2022-11-27T10:02:26.127Z,100629.19
2022-11-27T10:06:36.336Z,100616.25
2022-11-27T10:10:46.678Z,100614.72
2022-11-27T10:15:04.032Z,100606.13
2022-11-27T10:19:12.395Z,100596.81
2022-11-27T10:23:25.443Z,100598.13
2022-11-27T10:27:36.582Z,100607.69
2022-11-27T10:31:44.437Z,100592.69
2022-11-27T10:35:49.441Z,100597.09
2022-11-27T10:39:58.670Z,100590.09
2022-11-27T10:44:16.631Z,100592.03
2022-11-27T10:48:19.779Z,100580.31
2022-11-27T10:52:22.396Z,100574.88
2022-11-27T10:56:45.622Z,100567.13
2022-11-27T11:00:49.701Z,100559.06
2022-11-27T11:05:16.163Z,100559.34
2022-11-27T11:09:17.815Z,100557.16
2022-11-27T11:13:23.045Z,100545.97
2022-11-27T11:17:28.646Z,100540.63
2022-11-27T11:21:34.373Z,100538.94
2022-11-27T11:25:36.991Z,100541.44
2022-11-27T11:29:47.032Z,100534.16
2022-11-27T11:33:55.357Z,100524.41
2022-11-27T11:37:59.141Z,100522.41
2022-11-27T11:42:02.100Z,100514.94
2022-11-27T11:46:17.292Z,100516.44
2022-11-27T11:50:30.958Z,100516.59
2022-11-27T11:54:49.791Z,100504.06
2022-11-27T11:58:57.810Z,100499.03
2022-11-27T12:03:18.015Z,100492.13
2022-11-27T12:07:34.837Z,100483.19
2022-11-27T12:11:43.117Z,100474.91
2022-11-27T12:15:56.043Z,100467.16
2022-11-27T12:20:22.488Z,100470.38
2022-11-27T12:24:39.908Z,100462.06
2022-11-27T12:29:07.897Z,100448.75
2022-11-27T12:33:33.084Z,100445.03
2022-11-27T12:37:52.617Z,100436.72
2022-11-27T12:42:21.582Z,100428.28
2022-11-27T12:46:31.103Z,100428.69
2022-11-27T12:50:41.126Z,100421.94
2022-11-27T12:54:52.455Z,100419.09
2022-11-27T12:59:02.116Z,100412.09
2022-11-27T13:03:11.399Z,100411.63
2022-11-27T13:07:19.067Z,100400.84
2022-11-27T13:11:27.213Z,100392.53
2022-11-27T13:15:36.725Z,100378.09
2022-11-27T13:19:44.995Z,100382.75
2022-11-27T13:23:47.622Z,100376.69
2022-11-27T13:27:52.753Z,100370.06
2022-11-27T13:31:59.969Z,100373.47
2022-11-27T13:36:07.007Z,100372.47
2022-11-27T13:40:20.195Z,100362.75
2022-11-27T13:44:25.645Z,100353.34
2022-11-27T13:48:34.066Z,100350.13
2022-11-27T13:52:37.687Z,100353.63
2022-11-27T13:56:41.191Z,100340.06
2022-11-27T14:00:44.835Z,100336.16
2022-11-27T14:04:55.826Z,100337.72
2022-11-27T14:09:01.721Z,100326.00
2022-11-27T14:13:06.938Z,100328.09
2022-11-27T14:17:25.350Z,100327.16
2022-11-27T14:21:40.726Z,100319.66
2022-11-27T14:25:43.338Z,100319.78
2022-11-27T14:29:46.195Z,100307.38
2022-11-27T14:34:13.649Z,100310.44
2022-11-27T14:38:16.494Z,100306.66
2022-11-27T14:42:27.962Z,100302.28
2022-11-27T14:46:33.797Z,100287.81
2022-11-27T14:50:36.460Z,100285.97
2022-11-27T14:54:41.756Z,100285.47
2022-11-27T14:58:49.886Z,100283.47
2022-11-27T15:02:52.899Z,100273.91
2022-11-27T15:06:57.398Z,100267.06
2022-11-27T15:11:02.527Z,100254.94
2022-11-27T15:15:09.345Z,100256.56
2022-11-27T15:19:18.885Z,100255.06
2022-11-27T15:23:24.337Z,100248.56
2022-11-27T15:27:28.970Z,100240.53
2022-11-27T15:31:33.704Z,100237.84
2022-11-27T15:35:36.862Z,100231.75
2022-11-27T15:39:51.544Z,100228.22
2022-11-27T15:43:56.627Z,100226.28
2022-11-27T15:48:01.223Z,100218.34
2022-11-27T15:52:03.897Z,100220.44
2022-11-27T15:56:07.122Z,100215.22
2022-11-27T16:00:12.879Z,100218.47
2022-11-27T16:04:15.484Z,100217.91
2022-11-27T16:08:18.225Z,100214.56
2022-11-27T16:12:20.787Z,100214.75
2022-11-27T16:16:26.541Z,100210.34
2022-11-27T16:20:29.248Z,100200.59
2022-11-27T16:24:31.857Z,100207.97
2022-11-27T16:28:35.381Z,100191.06
2022-11-27T16:32:40.334Z,100187.34
2022-11-27T16:36:44.450Z,100182.13
2022-11-27T16:40:48.291Z,100193.97
2022-11-27T16:44:51.222Z,100188.41
2022-11-27T16:48:56.050Z,100172.28
2022-11-27T16:52:59.094Z,100169.88
2022-11-27T16:57:01.895Z,100149.22
2022-11-27T17:01:05.997Z,100148.03
2022-11-27T17:05:10.120Z,100150.09
2022-11-27T17:09:12.916Z,100144.75
2022-11-27T17:13:15.495Z,100135.22
2022-11-27T17:17:18.149Z,100115.31
2022-11-27T17:21:24.885Z,100109.84
2022-11-27T17:25:30.802Z,100112.38
2022-11-27T17:29:34.074Z,100111.91
2022-11-27T17:33:38.583Z,100105.03
2022-11-27T17:37:43.564Z,100092.69
2022-11-27T17:41:46.342Z,100101.38
2022-11-27T17:45:48.937Z,100099.66
2022-11-27T17:49:51.684Z,100091.84
2022-11-27T17:53:55.832Z,100095.38
2022-11-27T17:57:59.140Z,100099.19
2022-11-27T18:02:01.841Z,100088.72
2022-11-27T18:06:06.826Z,100085.38
2022-11-27T18:10:12.267Z,100096.78
2022-11-27T18:14:15.521Z,100093.75
2022-11-27T18:18:18.120Z,100092.31
2022-11-27T18:22:20.768Z,100081.06
2022-11-27T18:26:45.600Z,100086.84
2022-11-27T18:30:48.020Z,100060.34
2022-11-27T18:34:53.105Z,100058.63
2022-11-27T18:38:55.724Z,100053.19
2022-11-27T18:42:59.700Z,100049.34
2022-11-27T18:47:04.288Z,100044.13
2022-11-27T18:51:08.723Z,100042.44
2022-11-27T18:55:11.327Z,100044.78
2022-11-27T18:59:15.936Z,100029.75
2022-11-27T19:03:20.331Z,100027.03
2022-11-27T19:07:23.016Z,100034.34
2022-11-27T19:11:28.463Z,100034.28
2022-11-27T19:15:32.445Z,100016.53
2022-11-27T19:24:00.994Z,100014.22
2022-11-27T19:28:03.749Z,100000.66
2022-11-27T19:32:07.930Z,99997.16
2022-11-27T19:36:12.997Z,99994.94
2022-11-27T19:40:15.779Z,99992.25
2022-11-27T19:44:18.614Z,99989.56
2022-11-27T19:48:23.537Z,99998.66
2022-11-27T19:52:26.703Z,99989.44
2022-11-27T19:56:30.390Z,99982.94
2022-11-27T20:00:33.241Z,99978.44
2022-11-27T20:04:37.188Z,99977.16
2022-11-27T20:08:41.042Z,99974.03
2022-11-27T20:12:43.835Z,99977.00
2022-11-27T20:16:46.524Z,99967.16
2022-11-27T20:20:50.659Z,99956.13
2022-11-27T20:25:17.945Z,99959.69
2022-11-27T20:29:16.076Z,99953.97
2022-11-27T20:33:19.652Z,99947.75
2022-11-27T20:37:33.893Z,99944.59
2022-11-27T20:41:36.526Z,99934.97
2022-11-27T20:45:39.889Z,99931.94
2022-11-27T20:49:42.829Z,99934.81
2022-11-27T20:53:48.436Z,99926.03
2022-11-27T20:58:03.846Z,99925.31
2022-11-27T21:02:06.495Z,99917.06
2022-11-27T21:06:09.414Z,99912.44
2022-11-27T21:10:15.797Z,99910.75
2022-11-27T21:14:18.890Z,99905.19
2022-11-27T21:18:21.522Z,99903.69
2022-11-27T21:22:24.526Z,99892.94
2022-11-27T21:26:28.741Z,99893.81
2022-11-27T21:30:32.513Z,99888.13
2022-11-27T21:34:35.138Z,99884.22
2022-11-27T21:38:37.942Z,99881.72
2022-11-27T21:42:44.677Z,99879.09
2022-11-27T21:46:48.968Z,99870.78
2022-11-27T21:50:52.711Z,99866.22
2022-11-27T21:54:55.344Z,99861.41
2022-11-27T21:58:59.254Z,99847.59
